| Date | Time | Temp. (oF) | Dew Point (oF) | Rel. Hum. (%) | Press. (in.) | Wind Dir. | Wind Speed (mph) | Hourly Rainfall (in.) |
|
|---|---|---|---|---|---|---|---|---|---|
| 1 | 04/03 | 23:58 | 37 | 24 | 60 | 30.24 | WNW | 3 | 0.00 |
| 2 | 04/03 | 23:00 | 38 | 25 | 60 | 30.21 | NW | 5 | 0.00 |
| 3 | 04/03 | 22:00 | 40 | 25 | 56 | 30.18 | NW | 6 | 0.00 |
| 4 | 04/03 | 21:00 | 41 | 27 | 59 | 30.13 | WNW | 16 | 0.00 |
| 5 | 04/03 | 20:00 | 42 | 27 | 57 | 30.11 | W | 11 | 0.00 |
| 6 | 04/03 | 19:00 | 44 | 29 | 57 | 30.05 | NW | 8 | 0.00 |
| 7 | 04/03 | 18:00 | 46 | 35 | 66 | 30.05 | WNW | 11 | 0.00 |
| 8 | 04/03 | 17:00 | 45 | 38 | 78 | 30.01 | NNW | 8 | 0.00 |
| 9 | 04/03 | 16:00 | 44 | 41 | 91 | 29.99 | NW | 7 | 0.02 |
| 10 | 04/03 | 15:00 | 44 | 42 | 96 | 29.96 | NW | 13 | 0.07 |
| 11 | 04/03 | 14:00 | 49 | 45 | 89 | 29.94 | NW | 10 | 0.01 |
| 12 | 04/03 | 13:00 | 59 | 48 | 67 | 29.87 | NW | 15 | 0.00 |
| 13 | 04/03 | 12:00 | 67 | 52 | 60 | 29.84 | WNW | 9 | 0.00 |
| 14 | 04/03 | 11:00 | 68 | 53 | 61 | 29.85 | NNW | 9 | 0.00 |
| 15 | 04/03 | 10:00 | 69 | 54 | 61 | 29.84 | WSW | 9 | 0.00 |
| 16 | 04/03 | 09:00 | 66 | 55 | 69 | 29.83 | WSW | 2 | 0.00 |
| 17 | 04/03 | 08:00 | 61 | 56 | 86 | 29.83 | SSW | 11 | 0.00 |
| 18 | 04/03 | 07:00 | 59 | 56 | 91 | 29.81 | S | 15 | 0.00 |
| 19 | 04/03 | 06:00 | 58 | 55 | 91 | 29.80 | S | 6 | 0.00 |
| 20 | 04/03 | 05:00 | 58 | 55 | 90 | 29.80 | S | 7 | 0.00 |
| 21 | 04/03 | 04:00 | 58 | 54 | 88 | 29.80 | S | 6 | 0.00 |
| 22 | 04/03 | 03:00 | 59 | 54 | 85 | 29.81 | SSW | 6 | 0.00 |
| 23 | 04/03 | 02:00 | 59 | 53 | 82 | 29.82 | SSW | 13 | 0.00 |
| 24 | 04/03 | 01:00 | 60 | 53 | 79 | 29.82 | S | 10 | 0.00 |